McConnelsville, OH (43756)

11:45 PM EDT on July 30, 2014 (GMT -0400)
WISP in Watertown Ohio (KOHWATER4) Elev 774 ft | 39.50 °N, 81.65 °W | Change Station

Current weather conditions updated 60 seconds ago

Clear
Clear
60.3 °F
Feels Like 60.3 °F
N
0.0
Wind Variable Wind from SE
Gusts 1.0 mph

Tomorrow is forecast to be Warmer than today.

Today
High -- | Low -- °F
--% Chance of Precip.
Yesterday
High -- | Low -- °F
Precip. -- in
6:24 AM 8:42 PM
Waxing Crescent, 15% visible
Pressure 30.05 in
Visibility 10.0 miles
Clouds Clear
Dew Point 60 °F
Humidity 98%
Rainfall 0.11 in
Snow Depth Not available.
UV 0 out of 12
Pollen 7.00 out of 12
Air Quality Not available.
Flu Activity Not available.
METAR KZZV 310153Z AUTO 20005KT 10SM CLR 17/14 A3006 RMK AO2 SLP176 T01720144

More Conditions Fewer Conditions

Pressure 30.05 in
Visibility 10.0 miles
Clouds Clear
Dew Point 60 °F
Humidity 98%
Rainfall 0.11 in
Snow Depth Not available.
UV 0 out of 12
Pollen 7.00 out of 12
Air Quality Not available.
Flu Activity Not available.
METAR KZZV 310153Z AUTO 20005KT 10SM CLR 17/14 A3006 RMK AO2 SLP176 T01720144

More Conditions Fewer Conditions

10-Day Weather Forecast

Almanac

Astronomy

Jul. 30, 2014 Rise Set
Actual Time 6:24 AM EDT 8:42 PM EDT
Civil Twilight 5:54 AM EDT 9:12 PM EDT
Nautical Twilight 5:16 AM EDT 9:49 PM EDT
Astronomical Twilight 4:35 AM EDT 10:30 PM EDT
Moon 9:54 AM EDT (7/30) 10:25 PM EDT (7/30)
Length of Visible Light 15h 18m
Length of Day
14h 17m
Tomorrow will be 1m 55s shorter.
Waxing Crescent, 15% of the Moon is Illuminated
Today
Waxing Crescent
Aug 3
First Quarter
Aug 10
Full
Aug 17
Last Quarter
Aug 25
New

Today's Extremes

State Highs State Lows

Community

WunderPhotos

Upload Photos

1,739,279 photos uploaded!

Nearby

Snow Depth

Station Depth Elevation
No new snow has been reported.

Earthquake Activity

City Distance Mag. Time & Date
No recent earthquake activity has been reported nearby.
Minimum magnitude displayed is 2.5.

Coastal Water Temperatures

Place Temperature
No Stations Reporting

Nearby Weather Stations

Station Location Temp. Dew Point Humidity Wind Precip. Elev Updated Type
WISP in Watertown Ohio, Waterford, OH 60.3 °F 60 °F 98% SE  at  0.0 mph 0.00 in / hr 774 ft 10:44 PM CDT Normal
APRSWXNET Zanesville OH , Zanesville, OH 63 °F 60 °F 90% SW  at  7 mph 0.00 in / hr 839 ft 11:03 PM EDT MADIS
New Lexington, OH 60.0 °F 59 °F 98% North  at  0.0 mph 0.00 in / hr 860 ft 11:45 PM EDT Rapid Fire
Holly Hill@New Lex Reservoir, New Lexington, OH 62.9 °F 57 °F 80% South  at  0.0 mph 0.00 in / hr 1056 ft 11:45 PM EDT Rapid Fire
Falls Twp, North Zanesville, OH 61.6 °F 61 °F 97% SSE  at  0.0 mph 0.00 in / hr 800 ft 11:45 PM EDT Rapid Fire

Show More Stations Show Fewer Stations